createdAt,value
2017-02-15T00:00:07.959Z,-4.7
2017-02-15T00:00:26.641Z,-4.7
2017-02-15T00:00:45.301Z,-4.7
2017-02-15T00:01:03.966Z,-4.7
2017-02-15T00:01:22.668Z,-4.7
2017-02-15T00:01:41.338Z,-4.7
2017-02-15T00:01:59.999Z,-4.8
2017-02-15T00:02:18.665Z,-4.8
2017-02-15T00:02:37.325Z,-4.8
2017-02-15T00:02:55.984Z,-4.8
2017-02-15T00:03:14.643Z,-4.8
2017-02-15T00:03:33.310Z,-4.8
2017-02-15T00:03:51.968Z,-4.8
2017-02-15T00:04:10.630Z,-4.8
2017-02-15T00:04:29.326Z,-4.8
2017-02-15T00:04:47.990Z,-4.8
2017-02-15T00:05:06.646Z,-4.8
2017-02-15T00:05:25.305Z,-4.8
2017-02-15T00:05:43.969Z,-4.8
2017-02-15T00:06:02.674Z,-4.8
2017-02-15T00:06:21.336Z,-4.8
2017-02-15T00:06:40.021Z,-4.8
2017-02-15T00:06:58.681Z,-4.8
2017-02-15T00:07:17.342Z,-4.8
2017-02-15T00:07:36.034Z,-4.8
2017-02-15T00:07:54.712Z,-4.8
2017-02-15T00:08:13.372Z,-4.8
2017-02-15T00:08:32.048Z,-4.8
2017-02-15T00:08:50.722Z,-4.7
2017-02-15T00:09:09.406Z,-4.7
2017-02-15T00:09:28.083Z,-4.8
2017-02-15T00:09:46.749Z,-4.7
2017-02-15T00:10:05.421Z,-4.7
2017-02-15T00:10:24.101Z,-4.7
2017-02-15T00:10:42.766Z,-4.7
2017-02-15T00:11:01.429Z,-4.7
2017-02-15T00:11:20.092Z,-4.7
2017-02-15T00:11:38.754Z,-4.7
2017-02-15T00:11:57.411Z,-4.7
2017-02-15T00:12:16.081Z,-4.7
2017-02-15T00:12:34.745Z,-4.7
2017-02-15T00:12:53.440Z,-4.7
2017-02-15T00:13:12.096Z,-4.7
2017-02-15T00:13:30.775Z,-4.6
2017-02-15T00:13:49.462Z,-4.6
2017-02-15T00:14:08.119Z,-4.6
2017-02-15T00:14:26.780Z,-4.6
2017-02-15T00:14:45.440Z,-4.6
2017-02-15T00:15:04.112Z,-4.6
2017-02-15T00:15:22.778Z,-4.6
2017-02-15T00:15:41.443Z,-4.6
2017-02-15T00:16:00.119Z,-4.6
2017-02-15T00:16:18.789Z,-4.6
2017-02-15T00:16:37.453Z,-4.6
2017-02-15T00:16:56.117Z,-4.6
2017-02-15T00:17:14.781Z,-4.6
2017-02-15T00:17:33.446Z,-4.6
2017-02-15T00:17:52.106Z,-4.6
2017-02-15T00:18:10.786Z,-4.6
2017-02-15T00:18:29.463Z,-4.6
2017-02-15T00:18:48.136Z,-4.6
2017-02-15T00:19:06.799Z,-4.6
2017-02-15T00:19:25.468Z,-4.6
2017-02-15T00:19:44.151Z,-4.6
2017-02-15T00:20:02.814Z,-4.6
2017-02-15T00:20:21.477Z,-4.6
2017-02-15T00:20:40.139Z,-4.6
2017-02-15T00:20:58.804Z,-4.6
2017-02-15T00:21:17.470Z,-4.6
2017-02-15T00:21:36.126Z,-4.6
2017-02-15T00:21:54.809Z,-4.6
2017-02-15T00:22:13.484Z,-4.6
2017-02-15T00:22:32.145Z,-4.6
2017-02-15T00:22:50.805Z,-4.6
2017-02-15T00:23:09.473Z,-4.7
2017-02-15T00:23:28.144Z,-4.7
2017-02-15T00:23:46.810Z,-4.7
2017-02-15T00:24:05.489Z,-4.7
2017-02-15T00:24:24.173Z,-4.7
2017-02-15T00:24:42.831Z,-4.7
2017-02-15T00:25:01.492Z,-4.7
2017-02-15T00:25:20.167Z,-4.7
2017-02-15T00:25:38.826Z,-4.7
2017-02-15T00:25:57.494Z,-4.7
2017-02-15T00:26:16.154Z,-4.7
2017-02-15T00:26:34.819Z,-4.7
2017-02-15T00:26:53.478Z,-4.7
2017-02-15T00:27:12.147Z,-4.7
2017-02-15T00:27:30.826Z,-4.7
2017-02-15T00:27:49.498Z,-4.7
2017-02-15T00:28:08.174Z,-4.7
2017-02-15T00:28:26.837Z,-4.7
2017-02-15T00:28:45.520Z,-4.7
2017-02-15T00:29:04.206Z,-4.7
2017-02-15T00:29:22.878Z,-4.8
2017-02-15T00:29:41.539Z,-4.8
2017-02-15T00:30:00.200Z,-4.8
2017-02-15T00:30:18.857Z,-4.8
2017-02-15T00:30:37.517Z,-4.9
2017-02-15T00:30:56.182Z,-4.9
2017-02-15T00:31:14.846Z,-4.9
2017-02-15T00:31:33.507Z,-4.9
2017-02-15T00:31:52.172Z,-4.9
2017-02-15T00:32:10.832Z,-4.9
2017-02-15T00:32:29.493Z,-4.9
2017-02-15T00:32:48.151Z,-5
2017-02-15T00:33:06.832Z,-5
2017-02-15T00:33:25.499Z,-5
2017-02-15T00:33:44.193Z,-5
2017-02-15T00:34:02.901Z,-5
2017-02-15T00:34:21.561Z,-5
2017-02-15T00:34:40.230Z,-5
2017-02-15T00:34:58.892Z,-5
2017-02-15T00:35:17.563Z,-5
2017-02-15T00:35:36.228Z,-5
2017-02-15T00:35:54.891Z,-5
2017-02-15T00:36:13.552Z,-5
2017-02-15T00:36:32.219Z,-5
2017-02-15T00:36:50.879Z,-5
2017-02-15T00:37:09.544Z,-5
2017-02-15T00:37:28.205Z,-5
2017-02-15T00:37:46.868Z,-5
2017-02-15T00:38:05.530Z,-5
2017-02-15T00:38:24.214Z,-5
2017-02-15T00:38:42.883Z,-5
2017-02-15T00:39:01.547Z,-5
2017-02-15T00:39:20.220Z,-5
2017-02-15T00:39:38.881Z,-5
2017-02-15T00:39:57.543Z,-5
2017-02-15T00:40:16.208Z,-5
2017-02-15T00:40:34.871Z,-5
2017-02-15T00:40:53.528Z,-5
2017-02-15T00:41:12.185Z,-5
2017-02-15T00:41:30.848Z,-5
2017-02-15T00:41:49.510Z,-5
2017-02-15T00:42:08.168Z,-5
2017-02-15T00:42:26.832Z,-5
2017-02-15T00:42:45.515Z,-5
2017-02-15T00:43:04.201Z,-5
2017-02-15T00:43:22.872Z,-5
2017-02-15T00:43:41.532Z,-5
2017-02-15T00:44:00.192Z,-5
2017-02-15T00:44:18.859Z,-5
2017-02-15T00:44:37.532Z,-5
2017-02-15T00:44:56.191Z,-5
2017-02-15T00:45:14.878Z,-5
2017-02-15T00:45:33.547Z,-5
2017-02-15T00:45:52.239Z,-5
2017-02-15T00:46:10.905Z,-4.9
2017-02-15T00:46:29.572Z,-5
2017-02-15T00:46:48.231Z,-5
2017-02-15T00:47:06.894Z,-5
2017-02-15T00:47:25.557Z,-5
2017-02-15T00:47:44.255Z,-5
2017-02-15T00:48:02.910Z,-5
2017-02-15T00:48:21.578Z,-5
2017-02-15T00:48:40.238Z,-5
2017-02-15T00:48:58.895Z,-5
2017-02-15T00:49:17.561Z,-5
2017-02-15T00:49:36.226Z,-5
2017-02-15T00:49:54.896Z,-5.1
2017-02-15T00:50:13.559Z,-5.1
2017-02-15T00:50:32.225Z,-5.1
2017-02-15T00:50:50.885Z,-5.1
2017-02-15T00:51:09.562Z,-5.1
2017-02-15T00:51:28.223Z,-5.1
2017-02-15T00:51:46.886Z,-5.1
2017-02-15T00:52:05.551Z,-5.1
2017-02-15T00:52:24.266Z,-5.1
2017-02-15T00:52:42.928Z,-5.1
2017-02-15T00:53:01.590Z,-5.1
2017-02-15T00:53:20.250Z,-5
2017-02-15T00:53:38.916Z,-5.1
2017-02-15T00:53:57.577Z,-5.1
2017-02-15T00:54:16.242Z,-5
2017-02-15T00:54:34.916Z,-5
2017-02-15T00:54:53.577Z,-5
2017-02-15T00:55:12.253Z,-5
2017-02-15T00:55:30.921Z,-5
2017-02-15T00:55:49.579Z,-5
2017-02-15T00:56:08.239Z,-5
2017-02-15T00:56:26.906Z,-5
2017-02-15T00:56:45.581Z,-5
2017-02-15T00:57:04.265Z,-5
2017-02-15T00:57:22.936Z,-5
2017-02-15T00:57:41.596Z,-5
2017-02-15T00:58:00.284Z,-5
2017-02-15T00:58:18.948Z,-5
2017-02-15T00:58:37.626Z,-5.1
2017-02-15T00:58:56.287Z,-5.1
2017-02-15T00:59:14.945Z,-5.1
2017-02-15T00:59:33.608Z,-5.1
2017-02-15T00:59:52.267Z,-5.1
2017-02-15T01:00:10.934Z,-5.1
2017-02-15T01:00:29.616Z,-5.1
2017-02-15T01:00:48.280Z,-5.1
2017-02-15T01:01:06.941Z,-5.1
2017-02-15T01:01:25.612Z,-5.1
2017-02-15T01:01:44.299Z,-5.1
2017-02-15T01:02:02.967Z,-5.1
2017-02-15T01:02:21.630Z,-5.1
2017-02-15T01:02:40.297Z,-5.1
2017-02-15T01:02:58.965Z,-5.1
2017-02-15T01:03:17.677Z,-5.1
2017-02-15T01:03:36.338Z,-5.1
2017-02-15T01:03:55.018Z,-5.2
2017-02-15T01:04:13.680Z,-5.2
2017-02-15T01:04:32.348Z,-5.2
2017-02-15T01:04:51.011Z,-5.2
2017-02-15T01:05:09.672Z,-5.2
2017-02-15T01:05:28.331Z,-5.2
2017-02-15T01:05:47.010Z,-5.2
2017-02-15T01:06:05.679Z,-5.2
2017-02-15T01:06:24.365Z,-5.2
2017-02-15T01:06:43.024Z,-5.2
2017-02-15T01:07:01.692Z,-5.2
2017-02-15T01:07:20.354Z,-5.2
2017-02-15T01:07:39.020Z,-5.2
2017-02-15T01:07:57.722Z,-5.2
2017-02-15T01:08:16.385Z,-5.2
2017-02-15T01:08:35.055Z,-5.2
2017-02-15T01:08:53.719Z,-5.2
2017-02-15T01:09:12.397Z,-5.3
2017-02-15T01:09:31.062Z,-5.2
2017-02-15T01:09:49.727Z,-5.3
2017-02-15T01:10:08.394Z,-5.3
2017-02-15T01:10:27.051Z,-5.2
2017-02-15T01:10:45.711Z,-5.2
2017-02-15T01:11:04.431Z,-5.2
2017-02-15T01:11:23.098Z,-5.2
2017-02-15T01:11:41.755Z,-5.2
2017-02-15T01:12:00.422Z,-5.2
2017-02-15T01:12:19.093Z,-5.2
2017-02-15T01:12:37.756Z,-5.2
2017-02-15T01:12:56.413Z,-5.2
2017-02-15T01:13:15.076Z,-5.2
2017-02-15T01:13:33.735Z,-5.2
2017-02-15T01:13:52.397Z,-5.1
2017-02-15T01:14:11.056Z,-5.1
2017-02-15T01:14:29.722Z,-5.1
2017-02-15T01:14:48.383Z,-5.1
2017-02-15T01:15:07.049Z,-5.1
2017-02-15T01:15:25.716Z,-5.1
2017-02-15T01:15:44.408Z,-5.1
2017-02-15T01:16:03.078Z,-5.1
2017-02-15T01:16:21.762Z,-5.1
2017-02-15T01:16:40.425Z,-5.1
2017-02-15T01:16:59.097Z,-5.1
2017-02-15T01:17:17.772Z,-5.1
2017-02-15T01:17:36.438Z,-5.1
2017-02-15T01:17:55.115Z,-5.2
2017-02-15T01:18:13.783Z,-5.2
2017-02-15T01:18:32.447Z,-5.2
2017-02-15T01:18:51.103Z,-5.2
2017-02-15T01:19:09.770Z,-5.2
2017-02-15T01:19:28.437Z,-5.2
2017-02-15T01:19:47.098Z,-5.2
2017-02-15T01:20:05.755Z,-5.2
2017-02-15T01:20:24.442Z,-5.2
2017-02-15T01:20:43.105Z,-5.3
2017-02-15T01:21:01.769Z,-5.3
2017-02-15T01:21:20.434Z,-5.3
2017-02-15T01:21:39.119Z,-5.3
2017-02-15T01:21:57.790Z,-5.3
2017-02-15T01:22:16.453Z,-5.3
2017-02-15T01:22:35.118Z,-5.3
2017-02-15T01:22:53.811Z,-5.4
2017-02-15T01:23:12.470Z,-5.4
2017-02-15T01:23:31.134Z,-5.4
2017-02-15T01:23:49.793Z,-5.4
2017-02-15T01:24:08.457Z,-5.4
2017-02-15T01:24:27.117Z,-5.4
2017-02-15T01:24:45.780Z,-5.4
2017-02-15T01:25:04.463Z,-5.5
2017-02-15T01:25:23.123Z,-5.5
2017-02-15T01:25:41.791Z,-5.5
2017-02-15T01:26:00.452Z,-5.5
2017-02-15T01:26:19.130Z,-5.5
2017-02-15T01:26:37.804Z,-5.5
2017-02-15T01:26:56.475Z,-5.5
2017-02-15T01:27:15.135Z,-5.5
2017-02-15T01:27:33.794Z,-5.5
2017-02-15T01:27:52.455Z,-5.6
2017-02-15T01:28:11.132Z,-5.6
2017-02-15T01:28:29.789Z,-5.6
2017-02-15T01:28:48.476Z,-5.6
2017-02-15T01:29:07.142Z,-5.6
2017-02-15T01:29:25.823Z,-5.6
2017-02-15T01:29:44.490Z,-5.6
2017-02-15T01:30:03.153Z,-5.6
2017-02-15T01:30:21.822Z,-5.7
2017-02-15T01:30:40.483Z,-5.6
2017-02-15T01:30:59.159Z,-5.6
2017-02-15T01:31:17.823Z,-5.6
2017-02-15T01:31:36.490Z,-5.6
2017-02-15T01:31:55.160Z,-5.6
2017-02-15T01:32:13.829Z,-5.6
2017-02-15T01:32:32.490Z,-5.6
2017-02-15T01:32:51.159Z,-5.6
2017-02-15T01:33:09.824Z,-5.5
2017-02-15T01:33:28.481Z,-5.5
2017-02-15T01:33:47.148Z,-5.5
2017-02-15T01:34:05.813Z,-5.5
2017-02-15T01:34:24.484Z,-5.5
2017-02-15T01:34:43.145Z,-5.5
2017-02-15T01:35:01.813Z,-5.5
2017-02-15T01:35:20.474Z,-5.5
2017-02-15T01:35:39.157Z,-5.5
2017-02-15T01:35:57.823Z,-5.4
2017-02-15T01:36:16.492Z,-5.4
2017-02-15T01:36:35.152Z,-5.4
2017-02-15T01:36:53.811Z,-5.4
2017-02-15T01:37:12.471Z,-5.4
2017-02-15T01:37:31.158Z,-5.4
2017-02-15T01:37:49.825Z,-5.4
2017-02-15T01:38:08.495Z,-5.4
2017-02-15T01:38:27.159Z,-5.4
2017-02-15T01:38:45.821Z,-5.4
2017-02-15T01:39:04.482Z,-5.4
2017-02-15T01:39:23.152Z,-5.4
2017-02-15T01:39:41.815Z,-5.3
2017-02-15T01:40:00.477Z,-5.3
2017-02-15T01:40:19.172Z,-5.3
2017-02-15T01:40:37.846Z,-5.3
2017-02-15T01:40:56.509Z,-5.3
2017-02-15T01:41:15.173Z,-5.3
2017-02-15T01:41:33.834Z,-5.3
2017-02-15T01:41:52.492Z,-5.3
2017-02-15T01:42:11.185Z,-5.3
2017-02-15T01:42:29.873Z,-5.3
2017-02-15T01:42:48.558Z,-5.3
2017-02-15T01:43:07.217Z,-5.3
2017-02-15T01:43:25.881Z,-5.3
2017-02-15T01:43:44.539Z,-5.3
2017-02-15T01:44:03.198Z,-5.3
2017-02-15T01:44:21.867Z,-5.3
2017-02-15T01:44:40.535Z,-5.3
2017-02-15T01:44:59.243Z,-5.3
2017-02-15T01:45:17.904Z,-5.3
2017-02-15T01:45:36.578Z,-5.3
2017-02-15T01:45:55.237Z,-5.3
2017-02-15T01:46:13.907Z,-5.3
2017-02-15T01:46:32.576Z,-5.4
2017-02-15T01:46:51.247Z,-5.4
2017-02-15T01:47:09.906Z,-5.4
2017-02-15T01:47:28.569Z,-5.4
2017-02-15T01:47:47.230Z,-5.4
2017-02-15T01:48:05.923Z,-5.4
2017-02-15T01:48:24.589Z,-5.4
2017-02-15T01:48:43.257Z,-5.4
2017-02-15T01:49:01.923Z,-5.4
2017-02-15T01:49:20.591Z,-5.4
2017-02-15T01:49:39.297Z,-5.4
2017-02-15T01:49:57.956Z,-5.4
2017-02-15T01:50:16.628Z,-5.5
2017-02-15T01:50:35.293Z,-5.5
2017-02-15T01:50:53.950Z,-5.5
2017-02-15T01:51:12.648Z,-5.5
2017-02-15T01:51:31.321Z,-5.5
2017-02-15T01:51:49.984Z,-5.5
2017-02-15T01:52:08.642Z,-5.6
2017-02-15T01:52:27.303Z,-5.6
2017-02-15T01:52:45.972Z,-5.6
2017-02-15T01:53:04.638Z,-5.6
2017-02-15T01:53:23.319Z,-5.6
2017-02-15T01:53:41.989Z,-5.6
2017-02-15T01:54:00.649Z,-5.6
2017-02-15T01:54:19.337Z,-5.6
2017-02-15T01:54:38.007Z,-5.6
2017-02-15T01:54:56.682Z,-5.6
2017-02-15T01:55:15.345Z,-5.6
2017-02-15T01:55:34.009Z,-5.6
2017-02-15T01:55:52.704Z,-5.6
2017-02-15T01:56:11.389Z,-5.6
2017-02-15T01:56:30.049Z,-5.6
2017-02-15T01:56:48.709Z,-5.6
2017-02-15T01:57:07.369Z,-5.6
2017-02-15T01:57:26.035Z,-5.6
2017-02-15T01:57:44.695Z,-5.6
2017-02-15T01:58:03.359Z,-5.6
2017-02-15T01:58:22.016Z,-5.6
2017-02-15T01:58:40.688Z,-5.6
2017-02-15T01:58:59.376Z,-5.6
2017-02-15T01:59:18.044Z,-5.6
2017-02-15T01:59:36.707Z,-5.6
2017-02-15T01:59:55.389Z,-5.6
2017-02-15T02:00:14.058Z,-5.6
2017-02-15T02:00:32.744Z,-5.6
2017-02-15T02:00:51.415Z,-5.6
2017-02-15T02:01:10.080Z,-5.6
2017-02-15T02:01:28.747Z,-5.6
2017-02-15T02:01:47.407Z,-5.7
2017-02-15T02:02:06.067Z,-5.7
2017-02-15T02:02:24.740Z,-5.6
2017-02-15T02:02:43.399Z,-5.7
2017-02-15T02:03:02.057Z,-5.7
2017-02-15T02:03:20.725Z,-5.7
2017-02-15T02:03:39.417Z,-5.7
2017-02-15T02:03:58.098Z,-5.7
2017-02-15T02:04:16.759Z,-5.7
2017-02-15T02:04:35.423Z,-5.7
2017-02-15T02:04:54.108Z,-5.7
2017-02-15T02:05:12.767Z,-5.7
2017-02-15T02:05:31.432Z,-5.7
2017-02-15T02:05:50.093Z,-5.7
2017-02-15T02:06:08.757Z,-5.7
2017-02-15T02:06:27.431Z,-5.8
2017-02-15T02:06:46.096Z,-5.7
2017-02-15T02:07:04.766Z,-5.7
2017-02-15T02:07:23.426Z,-5.7
2017-02-15T02:07:42.084Z,-5.7
2017-02-15T02:08:00.748Z,-5.7
2017-02-15T02:08:19.436Z,-5.7
2017-02-15T02:08:38.116Z,-5.7
2017-02-15T02:08:56.783Z,-5.7
2017-02-15T02:09:15.463Z,-5.7
2017-02-15T02:09:34.153Z,-5.7
2017-02-15T02:09:52.813Z,-5.7
2017-02-15T02:10:11.475Z,-5.7
2017-02-15T02:10:30.143Z,-5.7
2017-02-15T02:10:48.804Z,-5.7
2017-02-15T02:11:07.469Z,-5.7
2017-02-15T02:11:26.135Z,-5.7
2017-02-15T02:11:44.800Z,-5.7
2017-02-15T02:12:03.471Z,-5.7
2017-02-15T02:12:22.130Z,-5.7
2017-02-15T02:12:40.790Z,-5.7
2017-02-15T02:12:59.465Z,-5.7
2017-02-15T02:13:18.134Z,-5.7
2017-02-15T02:13:36.801Z,-5.7
2017-02-15T02:13:55.463Z,-5.7
2017-02-15T02:14:14.148Z,-5.7
2017-02-15T02:14:32.828Z,-5.8
2017-02-15T02:14:51.485Z,-5.8
2017-02-15T02:15:10.162Z,-5.8
2017-02-15T02:15:28.839Z,-5.8
2017-02-15T02:15:47.514Z,-5.8
2017-02-15T02:16:06.186Z,-5.8
2017-02-15T02:16:24.851Z,-5.8
2017-02-15T02:16:43.510Z,-5.8
2017-02-15T02:17:02.169Z,-5.8
2017-02-15T02:17:20.829Z,-5.8
2017-02-15T02:17:39.508Z,-5.8
2017-02-15T02:17:58.187Z,-5.8
2017-02-15T02:18:16.854Z,-5.9
2017-02-15T02:18:35.511Z,-5.8
2017-02-15T02:18:54.200Z,-5.8
2017-02-15T02:19:12.870Z,-5.9
2017-02-15T02:19:31.529Z,-5.9
2017-02-15T02:19:50.200Z,-5.9
2017-02-15T02:20:08.860Z,-5.8
2017-02-15T02:20:27.525Z,-5.8
2017-02-15T02:20:46.187Z,-5.8
2017-02-15T02:21:04.849Z,-5.8
2017-02-15T02:21:23.514Z,-5.8
2017-02-15T02:21:42.179Z,-5.8
2017-02-15T02:22:00.840Z,-5.8
2017-02-15T02:22:19.509Z,-5.8
2017-02-15T02:22:38.171Z,-5.7
2017-02-15T02:22:56.834Z,-5.7
2017-02-15T02:23:15.497Z,-5.7
2017-02-15T02:23:34.199Z,-5.7
2017-02-15T02:23:52.866Z,-5.7
2017-02-15T02:24:11.531Z,-5.7
2017-02-15T02:24:30.189Z,-5.7
2017-02-15T02:24:48.848Z,-5.7
2017-02-15T02:25:07.533Z,-5.7
2017-02-15T02:25:26.188Z,-5.7
2017-02-15T02:25:44.854Z,-5.7
2017-02-15T02:26:03.513Z,-5.7
2017-02-15T02:26:22.176Z,-5.7
2017-02-15T02:26:40.838Z,-5.7
2017-02-15T02:26:59.504Z,-5.7
2017-02-15T02:27:18.163Z,-5.7
2017-02-15T02:27:36.832Z,-5.7
2017-02-15T02:27:55.497Z,-5.7
2017-02-15T02:28:14.176Z,-5.7
2017-02-15T02:28:32.842Z,-5.7
2017-02-15T02:28:51.511Z,-5.7
2017-02-15T02:29:10.177Z,-5.7
2017-02-15T02:29:28.840Z,-5.7
2017-02-15T02:29:47.511Z,-5.7
2017-02-15T02:30:06.168Z,-5.8
2017-02-15T02:30:24.843Z,-5.8
2017-02-15T02:30:43.503Z,-5.8
2017-02-15T02:31:02.165Z,-5.8
2017-02-15T02:31:20.827Z,-5.8
2017-02-15T02:31:39.492Z,-5.8
2017-02-15T02:31:58.158Z,-5.8
2017-02-15T02:32:16.826Z,-5.8
2017-02-15T02:32:35.488Z,-5.8
2017-02-15T02:32:54.184Z,-5.8
2017-02-15T02:33:12.848Z,-5.8
2017-02-15T02:33:31.507Z,-5.8
2017-02-15T02:33:50.173Z,-5.8
2017-02-15T02:34:08.831Z,-5.8
2017-02-15T02:34:27.496Z,-5.8
2017-02-15T02:34:46.166Z,-5.8
2017-02-15T02:35:04.832Z,-5.8
2017-02-15T02:35:23.491Z,-5.8
2017-02-15T02:35:42.155Z,-5.8
2017-02-15T02:36:00.826Z,-5.8
2017-02-15T02:36:19.491Z,-5.8
2017-02-15T02:36:38.160Z,-5.8
2017-02-15T02:36:56.817Z,-5.8
2017-02-15T02:37:15.482Z,-5.8
2017-02-15T02:37:34.174Z,-5.7
2017-02-15T02:37:52.831Z,-5.7
2017-02-15T02:38:11.493Z,-5.7
2017-02-15T02:38:30.161Z,-5.7
2017-02-15T02:38:48.818Z,-5.7
2017-02-15T02:39:07.505Z,-5.7
2017-02-15T02:39:26.177Z,-5.7
2017-02-15T02:39:44.848Z,-5.7
2017-02-15T02:40:03.512Z,-5.7
2017-02-15T02:40:22.169Z,-5.7
2017-02-15T02:40:40.829Z,-5.7
2017-02-15T02:40:59.506Z,-5.7
2017-02-15T02:41:18.165Z,-5.7
2017-02-15T02:41:36.825Z,-5.7
2017-02-15T02:41:55.486Z,-5.7
2017-02-15T02:42:14.168Z,-5.7
2017-02-15T02:42:32.826Z,-5.7
2017-02-15T02:42:51.493Z,-5.7
2017-02-15T02:43:10.157Z,-5.7
2017-02-15T02:43:28.814Z,-5.7
2017-02-15T02:43:47.475Z,-5.7
2017-02-15T02:44:06.143Z,-5.7
2017-02-15T02:44:24.805Z,-5.7
2017-02-15T02:44:43.467Z,-5.8
2017-02-15T02:45:02.140Z,-5.7
2017-02-15T02:45:20.810Z,-5.8
2017-02-15T02:45:39.479Z,-5.8
2017-02-15T02:45:58.140Z,-5.8
2017-02-15T02:46:16.809Z,-5.8
2017-02-15T02:46:35.472Z,-5.8
2017-02-15T02:46:54.157Z,-5.8
2017-02-15T02:47:12.822Z,-5.8
2017-02-15T02:47:31.488Z,-5.8
2017-02-15T02:47:50.161Z,-5.7
2017-02-15T02:48:08.819Z,-5.7
2017-02-15T02:48:27.483Z,-5.7
2017-02-15T02:48:46.144Z,-5.7
2017-02-15T02:49:04.805Z,-5.7
2017-02-15T02:49:23.464Z,-5.7
2017-02-15T02:49:42.124Z,-5.7
2017-02-15T02:50:00.786Z,-5.7
2017-02-15T02:50:19.458Z,-5.7
2017-02-15T02:50:38.120Z,-5.7
2017-02-15T02:50:56.782Z,-5.7
2017-02-15T02:51:15.445Z,-5.7
2017-02-15T02:51:34.146Z,-5.7
2017-02-15T02:51:52.808Z,-5.7
2017-02-15T02:52:11.470Z,-5.8
2017-02-15T02:52:30.132Z,-5.8
2017-02-15T02:52:48.793Z,-5.8
2017-02-15T02:53:07.465Z,-5.8
2017-02-15T02:53:26.126Z,-5.8
2017-02-15T02:53:44.785Z,-5.8
2017-02-15T02:54:03.451Z,-5.8
2017-02-15T02:54:22.137Z,-5.8
2017-02-15T02:54:40.801Z,-5.8
2017-02-15T02:54:59.471Z,-5.8
2017-02-15T02:55:18.136Z,-5.8
2017-02-15T02:55:36.797Z,-5.8
2017-02-15T02:55:55.462Z,-5.9
2017-02-15T02:56:14.136Z,-5.9
2017-02-15T02:56:32.804Z,-5.9
2017-02-15T02:56:51.486Z,-5.9
2017-02-15T02:57:10.148Z,-5.9
2017-02-15T02:57:28.811Z,-5.9
2017-02-15T02:57:47.475Z,-5.9
2017-02-15T02:58:06.138Z,-5.9
2017-02-15T02:58:24.804Z,-5.9
2017-02-15T02:59:22.063Z,-5.9
2017-02-15T02:59:40.725Z,-5.9
2017-02-15T02:59:59.429Z,-5.9
2017-02-15T03:00:18.091Z,-5.9
2017-02-15T03:00:36.753Z,-5.9
2017-02-15T03:01:34.008Z,-5.9
2017-02-15T03:01:52.707Z,-5.9
2017-02-15T03:02:11.370Z,-5.9
2017-02-15T03:02:30.037Z,-5.9
2017-02-15T03:02:48.707Z,-5.9
2017-02-15T03:03:07.366Z,-5.9
2017-02-15T03:03:26.025Z,-5.9
2017-02-15T03:03:44.690Z,-5.9
2017-02-15T03:04:03.355Z,-5.9
2017-02-15T03:04:22.022Z,-5.9
2017-02-15T03:04:40.706Z,-5.9
2017-02-15T03:04:59.404Z,-5.9
2017-02-15T03:05:18.069Z,-5.9
2017-02-15T03:05:36.738Z,-5.9
2017-02-15T03:05:55.417Z,-5.9
2017-02-15T03:06:14.098Z,-5.9
2017-02-15T03:06:32.763Z,-5.9
2017-02-15T03:06:51.434Z,-5.9
2017-02-15T03:07:10.096Z,-5.9
2017-02-15T03:07:28.767Z,-5.9
2017-02-15T03:07:47.439Z,-5.9
2017-02-15T03:08:06.100Z,-5.9
2017-02-15T03:08:24.765Z,-5.9
2017-02-15T03:08:43.437Z,-6
2017-02-15T03:09:02.102Z,-6
2017-02-15T03:09:20.775Z,-5.9
2017-02-15T03:09:39.458Z,-5.9
2017-02-15T03:09:58.129Z,-5.9
2017-02-15T03:10:16.811Z,-5.9
2017-02-15T03:10:35.492Z,-5.9
2017-02-15T03:10:54.193Z,-5.9
2017-02-15T03:11:12.868Z,-5.9
2017-02-15T03:11:31.532Z,-6
2017-02-15T03:11:50.206Z,-5.9
2017-02-15T03:12:08.870Z,-5.9
2017-02-15T03:12:27.542Z,-6
2017-02-15T03:12:46.214Z,-5.9
2017-02-15T03:13:04.882Z,-5.9
2017-02-15T03:13:23.555Z,-5.9
2017-02-15T03:13:42.227Z,-5.9
2017-02-15T03:14:00.887Z,-5.9
2017-02-15T03:14:19.574Z,-5.9
2017-02-15T03:14:38.253Z,-5.9
2017-02-15T03:14:56.918Z,-5.9
2017-02-15T03:15:15.603Z,-5.9
2017-02-15T03:15:34.301Z,-5.9
2017-02-15T03:15:53.030Z,-5.9
2017-02-15T03:16:11.706Z,-5.9
2017-02-15T03:16:30.366Z,-5.9
2017-02-15T03:16:49.032Z,-5.9
2017-02-15T03:17:07.733Z,-5.9
2017-02-15T03:17:26.407Z,-5.9
2017-02-15T03:17:45.076Z,-5.9
2017-02-15T03:18:03.742Z,-6
2017-02-15T03:18:22.410Z,-6
2017-02-15T03:18:41.083Z,-6
2017-02-15T03:18:59.760Z,-6
2017-02-15T03:19:18.435Z,-6
2017-02-15T03:19:37.104Z,-6
2017-02-15T03:19:55.771Z,-6
2017-02-15T03:20:14.453Z,-6
2017-02-15T03:20:33.116Z,-6
2017-02-15T03:20:51.788Z,-6
2017-02-15T03:21:10.472Z,-6
2017-02-15T03:21:29.151Z,-6
2017-02-15T03:21:47.827Z,-6
2017-02-15T03:22:06.493Z,-6
2017-02-15T03:22:25.158Z,-6
2017-02-15T03:22:43.831Z,-6
2017-02-15T03:23:02.493Z,-6
2017-02-15T03:23:21.162Z,-6
2017-02-15T03:23:39.836Z,-6
2017-02-15T03:23:58.501Z,-6
2017-02-15T03:24:17.168Z,-6
2017-02-15T03:24:35.842Z,-5.9
2017-02-15T03:24:54.512Z,-5.9
2017-02-15T03:25:13.176Z,-5.9
2017-02-15T03:25:31.847Z,-6
2017-02-15T03:25:50.532Z,-6
2017-02-15T03:26:09.231Z,-6
2017-02-15T03:26:27.929Z,-6
2017-02-15T03:26:46.594Z,-6
2017-02-15T03:27:05.258Z,-6
2017-02-15T03:27:23.927Z,-6
2017-02-15T03:27:42.593Z,-6
2017-02-15T03:28:01.254Z,-6
2017-02-15T03:28:19.915Z,-6
2017-02-15T03:28:38.577Z,-6
2017-02-15T03:28:57.246Z,-6
2017-02-15T03:29:15.913Z,-6
2017-02-15T03:29:34.586Z,-6
2017-02-15T03:29:53.276Z,-6
2017-02-15T03:30:11.971Z,-6
2017-02-15T03:30:30.635Z,-6
2017-02-15T03:30:49.322Z,-6
2017-02-15T03:31:07.979Z,-6
2017-02-15T03:31:26.648Z,-6
2017-02-15T03:31:45.305Z,-6
2017-02-15T03:32:03.965Z,-6
2017-02-15T03:32:22.672Z,-6
2017-02-15T03:32:41.341Z,-6
2017-02-15T03:33:00.002Z,-6
2017-02-15T03:33:18.664Z,-6
2017-02-15T03:33:37.323Z,-6
2017-02-15T03:33:55.984Z,-6
2017-02-15T03:34:14.653Z,-6
2017-02-15T03:34:33.317Z,-5.9
2017-02-15T03:34:51.981Z,-5.9
2017-02-15T03:35:10.654Z,-5.9
2017-02-15T03:35:29.361Z,-5.9
2017-02-15T03:35:48.017Z,-5.9
2017-02-15T03:36:06.693Z,-6
2017-02-15T03:36:25.352Z,-5.9
2017-02-15T03:36:44.012Z,-6
2017-02-15T03:37:02.713Z,-6
2017-02-15T03:37:21.374Z,-6
2017-02-15T03:37:40.037Z,-6
2017-02-15T03:37:58.699Z,-6
2017-02-15T03:38:17.359Z,-6
2017-02-15T03:38:36.036Z,-6
2017-02-15T03:38:54.723Z,-6
2017-02-15T03:39:13.379Z,-6
2017-02-15T03:39:32.043Z,-6
2017-02-15T03:39:50.717Z,-5.9
2017-02-15T03:40:09.411Z,-5.9
2017-02-15T03:40:28.070Z,-5.9
2017-02-15T03:40:46.752Z,-5.9
2017-02-15T03:41:05.417Z,-5.9
2017-02-15T03:41:24.089Z,-5.9
2017-02-15T03:41:42.753Z,-5.9
2017-02-15T03:42:01.415Z,-5.9
2017-02-15T03:42:20.079Z,-5.9
2017-02-15T03:42:38.757Z,-5.9
2017-02-15T03:42:57.419Z,-5.9
2017-02-15T03:43:16.085Z,-5.9
2017-02-15T03:43:34.753Z,-5.9
2017-02-15T03:43:53.415Z,-5.8
2017-02-15T03:44:12.084Z,-5.8
2017-02-15T03:44:30.753Z,-5.8
2017-02-15T03:44:49.442Z,-5.8
2017-02-15T03:45:08.103Z,-5.8
2017-02-15T03:45:26.787Z,-5.8
2017-02-15T03:45:45.467Z,-5.8
2017-02-15T03:46:04.174Z,-5.8
2017-02-15T03:46:22.834Z,-5.7
2017-02-15T03:46:41.492Z,-5.7
2017-02-15T03:47:00.150Z,-5.7
2017-02-15T03:47:18.807Z,-5.7
2017-02-15T03:47:37.463Z,-5.7
2017-02-15T03:47:56.120Z,-5.7
2017-02-15T03:48:14.785Z,-5.7
2017-02-15T03:48:33.454Z,-5.7
2017-02-15T03:48:52.121Z,-5.7
2017-02-15T03:49:10.783Z,-5.7
2017-02-15T03:49:29.467Z,-5.7
2017-02-15T03:49:48.141Z,-5.7
2017-02-15T03:50:06.813Z,-5.7
2017-02-15T03:50:25.485Z,-5.7
2017-02-15T03:50:44.168Z,-5.7
2017-02-15T03:51:02.842Z,-5.7
2017-02-15T03:51:21.516Z,-5.7
2017-02-15T03:51:40.190Z,-5.7
2017-02-15T03:51:58.851Z,-5.7
2017-02-15T03:52:17.510Z,-5.8
2017-02-15T03:52:36.179Z,-5.7
2017-02-15T03:52:54.843Z,-5.8
2017-02-15T03:53:13.501Z,-5.8
2017-02-15T03:53:32.159Z,-5.7
2017-02-15T03:53:50.836Z,-5.8
2017-02-15T03:54:09.496Z,-5.8
2017-02-15T03:54:28.162Z,-5.8
2017-02-15T03:54:46.822Z,-5.8
2017-02-15T03:55:05.491Z,-5.8
2017-02-15T03:55:24.172Z,-5.8
2017-02-15T03:55:42.836Z,-5.8
2017-02-15T03:56:01.510Z,-5.8
2017-02-15T03:56:20.170Z,-5.8
2017-02-15T03:56:38.854Z,-5.8
2017-02-15T03:56:57.511Z,-5.9
2017-02-15T03:57:16.178Z,-5.9
2017-02-15T03:57:34.842Z,-5.9
2017-02-15T03:57:53.502Z,-5.9
2017-02-15T03:58:12.170Z,-5.9
2017-02-15T03:58:30.831Z,-5.9
2017-02-15T03:58:49.497Z,-5.9
2017-02-15T03:59:08.155Z,-5.9
2017-02-15T03:59:26.815Z,-6
2017-02-15T03:59:45.478Z,-6
2017-02-15T04:00:04.159Z,-6
2017-02-15T04:00:22.828Z,-6
2017-02-15T04:00:41.513Z,-6
2017-02-15T04:01:00.178Z,-6
2017-02-15T04:01:18.835Z,-6
2017-02-15T04:01:37.500Z,-6
2017-02-15T04:01:56.159Z,-6
2017-02-15T04:02:14.820Z,-6
2017-02-15T04:02:33.480Z,-6
2017-02-15T04:02:52.140Z,-6
2017-02-15T04:03:10.802Z,-6
2017-02-15T04:03:29.471Z,-6
2017-02-15T04:03:48.132Z,-6.1
2017-02-15T04:04:06.795Z,-6
2017-02-15T04:04:25.453Z,-6
2017-02-15T04:04:44.135Z,-6.1
2017-02-15T04:05:02.798Z,-6
2017-02-15T04:05:21.457Z,-6
2017-02-15T04:05:40.117Z,-6
2017-02-15T04:05:58.781Z,-6
2017-02-15T04:06:17.443Z,-6
2017-02-15T04:06:36.099Z,-6
2017-02-15T04:06:54.770Z,-6
2017-02-15T04:07:13.461Z,-6
2017-02-15T04:07:32.120Z,-6
2017-02-15T04:07:50.792Z,-6
2017-02-15T04:08:09.463Z,-6
2017-02-15T04:08:28.132Z,-6
2017-02-15T04:08:46.799Z,-6
2017-02-15T04:09:05.469Z,-6
2017-02-15T04:09:24.145Z,-6
2017-02-15T04:09:42.816Z,-6
2017-02-15T04:10:01.480Z,-6
2017-02-15T04:10:20.150Z,-6
2017-02-15T04:10:38.808Z,-6
2017-02-15T04:10:57.488Z,-6
2017-02-15T04:11:16.146Z,-6
2017-02-15T04:11:34.805Z,-6
2017-02-15T04:11:53.467Z,-6
2017-02-15T04:12:12.125Z,-6
2017-02-15T04:12:30.799Z,-6
2017-02-15T04:12:49.465Z,-6
2017-02-15T04:13:08.120Z,-6
2017-02-15T04:13:26.786Z,-6